Time;durP1;ratioP1;P1;durP2;ratioP2;P2;SDS_P1;SDS_P2;PMS_P1;PMS_P2;Temp;Humidity;BMP_temperature;BMP_pressure;BME280_temperature;BME280_humidity;BME280_pressure;Samples;Min_cycle;Max_cycle;Signal;HPM_P1;HPM_P2
2023/01/10 00:01:57;;;;;;;1.63;1.43;;;6.90;99.90;;;;;;4989717;28;20293;-77
2023/01/10 00:04:26;;;;;;;1.90;1.80;;;7.00;99.90;;;;;;4989266;28;20234;-77
2023/01/10 00:06:53;;;;;;;2.30;1.50;;;7.00;99.90;;;;;;4989327;28;20569;-77
2023/01/10 00:09:19;;;;;;;1.60;1.50;;;6.90;99.90;;;;;;4989074;28;20246;-77
2023/01/10 00:14:33;;;;;;;1.80;1.63;;;7.00;99.90;;;;;;4989270;28;20945;-77
2023/01/10 00:17:02;;;;;;;1.63;1.57;;;6.90;99.90;;;;;;4988794;28;20760;-77
2023/01/10 00:19:29;;;;;;;2.83;1.50;;;6.90;99.90;;;;;;4988804;28;20206;-77
2023/01/10 00:22:01;;;;;;;2.77;1.87;;;6.90;99.90;;;;;;4989416;28;20305;-77
2023/01/10 00:24:28;;;;;;;2.00;1.80;;;6.90;99.90;;;;;;4989172;28;20226;-78
2023/01/10 00:26:55;;;;;;;2.50;2.00;;;7.00;99.90;;;;;;4989136;28;20289;-78
2023/01/10 00:29:25;;;;;;;2.20;2.10;;;7.00;99.90;;;;;;4989285;28;20216;-78
2023/01/10 00:31:52;;;;;;;1.90;1.80;;;7.00;99.90;;;;;;4988947;28;20320;-77
2023/01/10 00:34:20;;;;;;;2.40;1.80;;;6.90;99.90;;;;;;4988871;28;20274;-77
2023/01/10 00:36:47;;;;;;;4.20;2.00;;;6.90;99.90;;;;;;4988981;28;20250;-78
2023/01/10 00:39:14;;;;;;;1.60;1.50;;;6.90;99.90;;;;;;4988761;28;20699;-78
2023/01/10 00:44:26;;;;;;;2.70;1.83;;;7.00;99.90;;;;;;4988609;28;20308;-77
2023/01/10 00:46:53;;;;;;;1.87;1.77;;;7.00;99.90;;;;;;4988975;28;20246;-77
2023/01/10 00:49:21;;;;;;;2.33;1.83;;;7.00;99.90;;;;;;4986819;28;20581;-77
2023/01/10 00:51:49;;;;;;;1.77;1.67;;;7.00;99.90;;;;;;4981328;28;20292;-76
2023/01/10 00:54:16;;;;;;;2.10;1.80;;;7.00;99.90;;;;;;4989019;28;20210;-77
2023/01/10 00:56:43;;;;;;;1.80;1.70;;;7.00;99.90;;;;;;4988590;28;20221;-76
2023/01/10 00:59:09;;;;;;;2.07;1.87;;;6.90;99.90;;;;;;4988483;28;20333;-75
2023/01/10 01:01:36;;;;;;;2.00;1.80;;;6.90;99.90;;;;;;4989179;28;20218;-75
2023/01/10 01:04:03;;;;;;;1.80;1.70;;;6.90;99.90;;;;;;4988534;28;20230;-75
2023/01/10 01:06:32;;;;;;;3.77;1.80;;;6.90;99.90;;;;;;4988871;28;20450;-79
2023/01/10 01:08:58;;;;;;;1.77;1.63;;;6.90;99.90;;;;;;4983133;28;20295;-79
2023/01/10 01:11:26;;;;;;;1.90;1.70;;;6.90;99.90;;;;;;4968999;28;20664;-78
2023/01/10 01:13:53;;;;;;;1.90;1.67;;;6.80;99.90;;;;;;4969424;28;20302;-78
2023/01/10 01:16:20;;;;;;;1.60;1.50;;;6.80;99.90;;;;;;4977534;28;20344;-76
2023/01/10 01:18:46;;;;;;;1.67;1.57;;;6.80;99.90;;;;;;4988214;28;20686;-78
2023/01/10 01:21:14;;;;;;;2.53;1.73;;;6.80;99.90;;;;;;4988706;28;20649;-77
2023/01/10 01:23:42;;;;;;;1.70;1.60;;;6.80;99.90;;;;;;4988764;28;20244;-77
2023/01/10 01:26:09;;;;;;;1.63;1.53;;;6.80;99.90;;;;;;4988578;28;20249;-77
2023/01/10 01:28:37;;;;;;;1.83;1.73;;;6.70;99.90;;;;;;4988677;28;20293;-75
2023/01/10 01:31:08;;;;;;;1.87;1.77;;;6.70;99.90;;;;;;4988488;28;20202;-75
2023/01/10 01:33:35;;;;;;;3.70;1.87;;;6.70;99.90;;;;;;4988044;28;21035;-75
2023/01/10 01:36:02;;;;;;;1.93;1.80;;;6.70;99.90;;;;;;4988454;28;20247;-75
2023/01/10 01:38:29;;;;;;;2.10;1.90;;;6.60;99.90;;;;;;4987793;28;20430;-75
2023/01/10 01:40:57;;;;;;;1.90;1.80;;;6.70;99.90;;;;;;4988246;28;20261;-75
2023/01/10 01:43:26;;;;;;;2.00;1.70;;;6.60;99.90;;;;;;4988420;28;20230;-75
2023/01/10 01:45:54;;;;;;;2.13;2.00;;;6.60;99.90;;;;;;4988363;28;20230;-75
2023/01/10 01:48:32;;;;;;;2.27;2.13;;;6.60;99.90;;;;;;4988033;28;20222;-75
2023/01/10 01:51:06;;;;;;;2.20;2.10;;;6.60;99.90;;;;;;4969086;28;20203;-76
2023/01/10 01:53:38;;;;;;;2.73;2.40;;;6.60;99.90;;;;;;4969135;28;20195;-76
2023/01/10 01:56:12;;;;;;;2.60;2.40;;;6.60;99.90;;;;;;4968740;28;20666;-76
2023/01/10 01:58:45;;;;;;;2.43;2.23;;;6.60;99.90;;;;;;4970219;28;20238;-76
2023/01/10 02:01:13;;;;;;;2.30;2.10;;;6.60;99.90;;;;;;4987953;28;20212;-76
2023/01/10 02:03:41;;;;;;;3.20;2.20;;;6.60;99.90;;;;;;4989862;28;20210;-76
2023/01/10 02:06:08;;;;;;;3.63;2.00;;;6.60;99.90;;;;;;4991671;28;20238;-75
2023/01/10 02:08:36;;;;;;;2.03;1.93;;;6.50;99.90;;;;;;4991671;28;20210;-76
2023/01/10 02:11:09;;;;;;;1.50;1.40;;;6.50;99.90;;;;;;4991070;28;20208;-76
2023/01/10 02:13:41;;;;;;;1.80;1.70;;;6.50;99.90;;;;;;4993082;28;20206;-75
2023/01/10 02:16:08;;;;;;;2.23;2.03;;;6.50;99.90;;;;;;5002773;28;20337;-76
2023/01/10 02:18:37;;;;;;;2.03;1.47;;;6.50;99.90;;;;;;4990884;28;20634;-76
2023/01/10 02:21:19;;;;;;;1.53;1.43;;;6.50;99.90;;;;;;4991881;28;20241;-77
2023/01/10 02:24:40;;;;;;;1.63;1.30;;;6.50;99.90;;;;;;4991076;28;20238;-78
2023/01/10 02:27:28;;;;;;;1.80;1.40;;;6.50;99.90;;;;;;4950121;29;20742;-77
2023/01/10 02:30:36;;;;;;;2.50;1.43;;;6.50;99.90;;;;;;4991486;28;20281;-77
2023/01/10 02:33:10;;;;;;;2.67;1.80;;;6.60;99.90;;;;;;4971902;28;20286;-76
2023/01/10 02:35:58;;;;;;;1.83;1.43;;;6.60;99.90;;;;;;4983228;28;20301;-76
2023/01/10 02:38:36;;;;;;;2.50;1.90;;;6.60;99.90;;;;;;4990877;28;20258;-77
2023/01/10 02:41:10;;;;;;;2.30;1.90;;;6.60;99.90;;;;;;4991233;28;20213;-77
2023/01/10 02:43:44;;;;;;;2.10;1.90;;;6.60;99.90;;;;;;4987092;28;20302;-77
2023/01/10 02:46:15;;;;;;;2.07;1.80;;;6.60;99.90;;;;;;4990721;28;20312;-76
2023/01/10 02:48:43;;;;;;;3.10;2.10;;;6.60;99.90;;;;;;4990713;28;20297;-76
2023/01/10 02:51:18;;;;;;;1.93;1.83;;;6.60;99.90;;;;;;4990888;28;20210;-76
2023/01/10 02:53:48;;;;;;;1.97;1.87;;;6.60;99.90;;;;;;4990845;28;20305;-76
2023/01/10 02:56:40;;;;;;;2.40;1.83;;;6.60;99.90;;;;;;4990026;28;20360;-76
2023/01/10 02:59:29;;;;;;;1.80;1.70;;;6.60;99.90;;;;;;4990021;28;20222;-76
2023/01/10 03:02:03;;;;;;;2.63;1.80;;;6.60;99.90;;;;;;4990627;28;20630;-76
2023/01/10 03:04:44;;;;;;;3.43;2.10;;;6.60;99.90;;;;;;4990572;28;20231;-77
2023/01/10 03:07:18;;;;;;;3.47;1.93;;;6.60;99.90;;;;;;4990686;28;20210;-76
2023/01/10 03:09:52;;;;;;;3.63;2.23;;;6.60;99.90;;;;;;4990249;28;20195;-77
2023/01/10 03:12:25;;;;;;;2.37;2.13;;;6.60;99.90;;;;;;4990550;28;20190;-76
2023/01/10 03:14:55;;;;;;;2.70;2.33;;;6.60;99.90;;;;;;4989621;28;20194;-76
2023/01/10 03:17:24;;;;;;;2.67;2.20;;;6.60;99.90;;;;;;4972532;28;20294;-76
2023/01/10 03:19:56;;;;;;;3.37;2.87;;;6.60;99.90;;;;;;4977609;28;20205;-77
2023/01/10 03:22:25;;;;;;;3.73;2.50;;;6.60;99.90;;;;;;4983442;28;20257;-76
2023/01/10 03:24:55;;;;;;;2.60;2.40;;;6.60;99.90;;;;;;4981671;28;20321;-75
2023/01/10 03:27:27;;;;;;;2.87;2.50;;;6.60;99.90;;;;;;4986610;28;20198;-76
2023/01/10 03:30:03;;;;;;;2.83;2.57;;;6.60;99.90;;;;;;4982956;28;20226;-76
2023/01/10 03:32:31;;;;;;;5.47;2.77;;;6.60;99.90;;;;;;4986643;28;20222;-76
2023/01/10 03:35:01;;;;;;;4.53;2.73;;;6.60;99.90;;;;;;4988523;28;20295;-76
2023/01/10 03:37:35;;;;;;;3.97;2.80;;;6.60;99.90;;;;;;4988230;28;20222;-76
2023/01/10 03:40:09;;;;;;;3.00;2.70;;;6.70;99.90;;;;;;4988145;28;20209;-76
2023/01/10 03:45:30;;;;;;;3.53;2.77;;;6.60;99.90;;;;;;4965030;28;20233;-76
2023/01/10 03:47:59;;;;;;;6.30;2.93;;;6.70;99.90;;;;;;4979510;28;20202;-76
2023/01/10 03:50:28;;;;;;;3.60;3.30;;;6.60;99.90;;;;;;4982570;28;20224;-76
2023/01/10 03:52:56;;;;;;;4.83;2.87;;;6.70;99.90;;;;;;4988423;28;20309;-76
2023/01/10 03:55:26;;;;;;;5.13;3.27;;;6.60;99.90;;;;;;4987430;28;20206;-76
2023/01/10 03:57:53;;;;;;;6.33;3.23;;;6.60;99.90;;;;;;4989841;28;20206;-76
2023/01/10 04:00:20;;;;;;;6.07;3.30;;;6.60;99.90;;;;;;4989027;28;20237;-76
2023/01/10 04:02:47;;;;;;;7.83;3.40;;;6.60;99.90;;;;;;4988416;28;20291;-75
2023/01/10 04:05:14;;;;;;;5.00;3.83;;;6.60;99.90;;;;;;4987971;28;20236;-75
2023/01/10 04:07:43;;;;;;;3.53;3.00;;;6.50;99.90;;;;;;4987383;28;20199;-75
2023/01/10 04:10:11;;;;;;;3.90;3.53;;;6.50;99.90;;;;;;4985763;28;20210;-75
2023/01/10 04:12:37;;;;;;;6.17;3.50;;;6.50;99.90;;;;;;4988369;28;20576;-74
2023/01/10 04:15:06;;;;;;;7.23;4.20;;;6.50;99.90;;;;;;4987621;28;20242;-75
2023/01/10 04:17:32;;;;;;;6.10;3.63;;;6.50;99.90;;;;;;4987155;28;20749;-75
2023/01/10 04:19:59;;;;;;;6.83;3.53;;;6.50;99.90;;;;;;4988100;28;20304;-74
2023/01/10 04:22:27;;;;;;;4.27;3.50;;;6.50;99.90;;;;;;4987366;28;20241;-74
2023/01/10 04:24:55;;;;;;;8.13;4.23;;;6.40;99.90;;;;;;4987940;28;20237;-74
2023/01/10 04:27:23;;;;;;;8.97;4.00;;;6.50;99.90;;;;;;4979476;28;20344;-75
2023/01/10 04:29:50;;;;;;;4.70;3.47;;;6.50;99.90;;;;;;4988941;28;20581;-75
2023/01/10 04:32:16;;;;;;;6.93;4.07;;;6.50;99.90;;;;;;4988788;28;20211;-75
2023/01/10 04:34:43;;;;;;;8.10;3.90;;;6.50;99.90;;;;;;4988601;28;20297;-75
2023/01/10 04:37:10;;;;;;;8.17;4.00;;;6.50;99.90;;;;;;4988258;28;20349;-75
2023/01/10 04:39:37;;;;;;;8.00;3.90;;;6.50;99.90;;;;;;4988837;28;20600;-75
2023/01/10 04:42:05;;;;;;;6.40;3.70;;;6.50;99.90;;;;;;4988847;28;20662;-75
2023/01/10 04:44:32;;;;;;;9.17;4.13;;;6.50;99.90;;;;;;4988725;28;20217;-75
2023/01/10 04:46:59;;;;;;;6.07;3.60;;;6.50;99.90;;;;;;4988789;28;20209;-75
2023/01/10 04:49:26;;;;;;;6.73;4.13;;;6.40;99.90;;;;;;4988402;28;20297;-75
2023/01/10 04:51:53;;;;;;;7.20;4.10;;;6.50;99.90;;;;;;4988459;28;20260;-75
2023/01/10 04:54:21;;;;;;;7.93;3.90;;;6.50;99.90;;;;;;4988096;28;20238;-76
2023/01/10 04:56:48;;;;;;;6.53;4.13;;;6.50;99.90;;;;;;4987927;28;20213;-75
2023/01/10 04:59:16;;;;;;;4.30;3.90;;;6.50;99.90;;;;;;4988314;28;20313;-75
2023/01/10 05:01:43;;;;;;;8.10;4.40;;;6.50;99.90;;;;;;4988299;28;20275;-75
2023/01/10 05:04:10;;;;;;;6.53;3.93;;;6.50;99.90;;;;;;4988388;28;20301;-75
2023/01/10 05:06:38;;;;;;;7.60;4.30;;;6.50;99.90;;;;;;4988332;28;20674;-75
2023/01/10 05:09:06;;;;;;;8.90;4.20;;;6.50;99.90;;;;;;4988241;28;20293;-75
2023/01/10 05:11:33;;;;;;;10.90;4.60;;;6.40;99.90;;;;;;4988217;28;20309;-76
2023/01/10 05:13:59;;;;;;;8.67;4.90;;;6.40;99.90;;;;;;4988399;28;20301;-75
2023/01/10 05:16:28;;;;;;;9.87;4.50;;;6.40;99.90;;;;;;4987670;28;20726;-75
2023/01/10 05:18:54;;;;;;;8.40;4.70;;;6.40;99.90;;;;;;4988155;28;20297;-75
2023/01/10 05:21:21;;;;;;;11.00;4.60;;;6.40;99.90;;;;;;4987830;28;20669;-74
2023/01/10 05:23:48;;;;;;;8.17;4.60;;;6.40;99.90;;;;;;5000851;28;20728;-74
2023/01/10 05:26:18;;;;;;;8.00;4.50;;;6.40;99.90;;;;;;4987914;28;20244;-74
2023/01/10 05:28:46;;;;;;;7.73;4.40;;;6.40;99.90;;;;;;4987998;28;20198;-74
2023/01/10 05:31:15;;;;;;;7.20;4.50;;;6.50;99.90;;;;;;4988519;28;20651;-74
2023/01/10 05:33:45;;;;;;;11.83;4.77;;;6.50;99.90;;;;;;4988598;28;20206;-74
2023/01/10 05:36:12;;;;;;;10.00;4.97;;;6.50;99.90;;;;;;4988206;28;20284;-74
2023/01/10 05:38:39;;;;;;;8.50;4.30;;;6.50;99.90;;;;;;4991679;28;20226;-75
2023/01/10 05:41:06;;;;;;;9.93;5.10;;;6.50;99.90;;;;;;4991865;28;20309;-74
2023/01/10 05:43:33;;;;;;;7.60;4.33;;;6.50;99.90;;;;;;4992093;28;20293;-74
2023/01/10 05:46:00;;;;;;;7.03;4.80;;;6.40;99.90;;;;;;4992032;28;20320;-74
2023/01/10 05:48:27;;;;;;;7.97;4.63;;;6.40;99.90;;;;;;4991655;28;20214;-74
2023/01/10 05:50:56;;;;;;;8.23;4.40;;;6.50;99.90;;;;;;4991427;28;20210;-75
2023/01/10 05:53:23;;;;;;;12.53;4.50;;;6.50;99.90;;;;;;4991860;28;20284;-75
2023/01/10 05:55:54;;;;;;;10.03;4.90;;;6.50;99.90;;;;;;4988190;28;20617;-75
2023/01/10 05:58:21;;;;;;;5.37;4.13;;;6.50;99.90;;;;;;4991508;28;20324;-75
2023/01/10 06:00:48;;;;;;;6.03;4.40;;;6.50;99.90;;;;;;4991305;28;20765;-75
2023/01/10 06:03:15;;;;;;;7.23;4.20;;;6.50;99.90;;;;;;4991380;28;20628;-75
2023/01/10 06:05:42;;;;;;;10.47;4.80;;;6.50;99.90;;;;;;4991717;28;20338;-75
2023/01/10 06:08:10;;;;;;;12.10;4.70;;;6.50;99.90;;;;;;4991804;28;20202;-75
2023/01/10 06:10:37;;;;;;;6.33;4.70;;;6.50;99.90;;;;;;4991254;28;20233;-75
2023/01/10 06:13:04;;;;;;;9.40;4.50;;;6.50;99.90;;;;;;4991249;28;20657;-75
2023/01/10 06:15:32;;;;;;;8.87;4.30;;;6.50;99.90;;;;;;4990996;28;20245;-75
2023/01/10 06:17:59;;;;;;;12.20;4.83;;;6.50;99.90;;;;;;4991077;28;20245;-75
2023/01/10 06:20:25;;;;;;;14.40;5.50;;;6.50;99.90;;;;;;4982551;28;20301;-75
2023/01/10 06:22:53;;;;;;;6.90;4.53;;;6.50;99.90;;;;;;4991418;28;20297;-75
2023/01/10 06:25:21;;;;;;;9.33;4.93;;;6.50;99.90;;;;;;4990721;28;20695;-75
2023/01/10 06:27:48;;;;;;;8.40;4.37;;;6.50;99.90;;;;;;4991391;28;20210;-75
2023/01/10 06:30:15;;;;;;;9.47;4.77;;;6.60;99.90;;;;;;4990887;28;20213;-75
2023/01/10 06:32:42;;;;;;;8.97;4.57;;;6.50;99.90;;;;;;4991004;28;20321;-75
2023/01/10 06:35:10;;;;;;;10.37;4.77;;;6.50;99.90;;;;;;4991034;28;20297;-75
2023/01/10 06:37:37;;;;;;;8.47;4.97;;;6.50;99.90;;;;;;4991122;28;20249;-75
2023/01/10 06:40:04;;;;;;;9.80;4.67;;;6.50;99.90;;;;;;4991047;28;20205;-75
2023/01/10 06:42:33;;;;;;;7.73;4.60;;;6.50;99.90;;;;;;4990882;28;20302;-75
2023/01/10 06:45:00;;;;;;;8.80;4.90;;;6.50;99.90;;;;;;4990590;28;20305;-75
2023/01/10 06:47:27;;;;;;;8.83;5.27;;;6.50;99.90;;;;;;4990299;28;20328;-75
2023/01/10 06:49:53;;;;;;;9.63;4.97;;;6.60;99.90;;;;;;4990195;28;20809;-76
2023/01/10 06:52:20;;;;;;;10.47;5.50;;;6.60;99.90;;;;;;4990849;28;20297;-75
2023/01/10 06:54:47;;;;;;;8.07;5.03;;;6.60;99.90;;;;;;4990778;28;20313;-75
2023/01/10 06:57:14;;;;;;;14.17;6.03;;;6.60;99.90;;;;;;4990466;28;20276;-75
2023/01/10 06:59:43;;;;;;;8.23;5.30;;;6.60;99.90;;;;;;4990366;28;20297;-74
2023/01/10 07:02:11;;;;;;;10.17;5.10;;;6.60;99.90;;;;;;4989879;28;20300;-74
2023/01/10 07:04:38;;;;;;;9.17;5.30;;;6.60;99.90;;;;;;4990491;28;20213;-75
2023/01/10 07:07:05;;;;;;;9.43;5.50;;;6.60;99.90;;;;;;4990351;28;20316;-75
2023/01/10 07:09:32;;;;;;;10.20;5.27;;;6.50;99.90;;;;;;4990248;28;20292;-74
2023/01/10 07:11:59;;;;;;;9.23;5.40;;;6.50;99.90;;;;;;4989971;28;20301;-75
2023/01/10 07:14:26;;;;;;;16.57;5.60;;;6.50;99.90;;;;;;4989755;28;20245;-74
2023/01/10 07:16:54;;;;;;;6.90;6.00;;;6.50;99.90;;;;;;4989695;28;20245;-75
2023/01/10 07:19:21;;;;;;;11.67;6.17;;;6.40;99.90;;;;;;4989692;28;20579;-75
2023/01/10 07:21:48;;;;;;;10.27;5.80;;;6.40;99.90;;;;;;4990005;28;20206;-75
2023/01/10 07:24:15;;;;;;;7.80;6.20;;;6.40;99.90;;;;;;4989909;28;20214;-75
2023/01/10 07:26:42;;;;;;;10.10;5.53;;;6.40;99.90;;;;;;4990072;28;20238;-75
2023/01/10 07:29:09;;;;;;;9.73;5.63;;;6.40;99.90;;;;;;4990206;28;20305;-75
2023/01/10 07:31:36;;;;;;;8.47;5.57;;;6.40;99.90;;;;;;4980090;28;20302;-75
2023/01/10 07:34:04;;;;;;;10.20;6.00;;;6.30;99.90;;;;;;4970102;28;20342;-75
2023/01/10 07:36:31;;;;;;;11.07;6.50;;;6.40;99.90;;;;;;4970284;28;20221;-75
2023/01/10 07:38:58;;;;;;;10.80;5.80;;;6.30;99.90;;;;;;4987198;28;20297;-75
2023/01/10 07:41:25;;;;;;;13.77;6.60;;;6.30;99.90;;;;;;4989695;28;20258;-75
2023/01/10 07:43:52;;;;;;;9.17;6.93;;;6.30;99.90;;;;;;4990040;28;20310;-75
2023/01/10 07:46:19;;;;;;;11.70;6.03;;;6.30;99.90;;;;;;4989467;28;20245;-75
2023/01/10 07:48:47;;;;;;;9.37;6.27;;;6.30;99.90;;;;;;4989451;28;20658;-75
2023/01/10 07:51:16;;;;;;;12.97;6.60;;;6.20;99.90;;;;;;4989434;28;20211;-75
2023/01/10 07:53:43;;;;;;;12.33;6.67;;;6.30;99.90;;;;;;4989103;28;20241;-75
2023/01/10 07:56:09;;;;;;;8.03;5.47;;;6.30;99.90;;;;;;4988789;28;20297;-75
2023/01/10 07:58:36;;;;;;;8.63;5.83;;;6.30;99.90;;;;;;4989295;28;20213;-76
2023/01/10 08:01:05;;;;;;;9.93;6.13;;;6.30;99.90;;;;;;4989216;28;20234;-75
2023/01/10 08:03:32;;;;;;;8.73;6.13;;;6.30;99.90;;;;;;4988935;28;20206;-75
2023/01/10 08:06:01;;;;;;;9.80;6.03;;;6.30;99.90;;;;;;4989015;28;20717;-75
2023/01/10 08:08:30;;;;;;;11.40;6.17;;;6.30;99.90;;;;;;4988860;28;20582;-75
2023/01/10 08:10:58;;;;;;;9.87;6.10;;;6.30;99.90;;;;;;4989008;28;20771;-75
2023/01/10 08:13:25;;;;;;;10.93;5.90;;;6.40;99.90;;;;;;4989148;28;20229;-75
2023/01/10 08:15:52;;;;;;;9.83;6.03;;;6.30;99.90;;;;;;4989008;28;20238;-75
2023/01/10 08:18:20;;;;;;;12.03;5.87;;;6.30;99.90;;;;;;4989028;28;20205;-75
2023/01/10 08:20:49;;;;;;;8.33;5.90;;;6.40;99.90;;;;;;4989189;28;20309;-75
2023/01/10 08:23:17;;;;;;;10.37;5.70;;;6.40;99.90;;;;;;5004078;28;20239;-74
2023/01/10 08:25:46;;;;;;;9.83;5.60;;;6.40;99.90;;;;;;5008246;28;20292;-75
2023/01/10 08:28:13;;;;;;;12.50;5.93;;;6.40;99.90;;;;;;4995752;28;20289;-75
2023/01/10 08:30:40;;;;;;;6.90;5.30;;;6.40;99.90;;;;;;4989002;28;20297;-75
2023/01/10 08:33:09;;;;;;;12.33;6.00;;;6.40;99.90;;;;;;4988799;28;20293;-75
2023/01/10 08:35:40;;;;;;;12.47;6.17;;;6.40;99.90;;;;;;4969046;28;20697;-75
2023/01/10 08:38:08;;;;;;;10.33;6.10;;;6.40;99.90;;;;;;4969206;28;20675;-74
2023/01/10 08:40:35;;;;;;;8.27;6.03;;;6.40;99.90;;;;;;4968939;28;20257;-75
2023/01/10 08:43:06;;;;;;;10.00;6.00;;;6.40;99.90;;;;;;4969213;28;20202;-75
2023/01/10 08:45:33;;;;;;;9.87;5.83;;;6.50;99.90;;;;;;4971737;28;20234;-74
2023/01/10 08:48:00;;;;;;;9.30;5.90;;;6.50;99.90;;;;;;4988324;28;20324;-75
2023/01/10 08:50:27;;;;;;;10.63;6.10;;;6.50;99.90;;;;;;4988178;28;20206;-75
2023/01/10 08:52:54;;;;;;;10.63;6.07;;;6.60;99.90;;;;;;4988667;28;20301;-75
2023/01/10 08:55:21;;;;;;;8.73;6.03;;;6.60;99.90;;;;;;4988687;28;20300;-75
2023/01/10 08:57:48;;;;;;;9.30;6.60;;;6.60;99.90;;;;;;4988397;28;20309;-75
2023/01/10 09:00:17;;;;;;;9.83;6.23;;;6.60;99.90;;;;;;4988295;28;20210;-75
2023/01/10 09:02:44;;;;;;;12.03;6.20;;;6.60;99.90;;;;;;4988376;28;20289;-75
2023/01/10 09:05:11;;;;;;;8.10;6.40;;;6.60;99.90;;;;;;4988243;28;20747;-75
2023/01/10 09:07:40;;;;;;;9.03;6.07;;;6.70;99.90;;;;;;4988412;28;20268;-75
2023/01/10 09:10:08;;;;;;;9.90;6.40;;;6.70;99.90;;;;;;4987978;28;20214;-75
2023/01/10 09:15:21;;;;;;;8.70;6.13;;;6.70;99.90;;;;;;4994418;28;20283;-74
2023/01/10 09:17:49;;;;;;;7.43;5.77;;;6.70;99.90;;;;;;4994894;28;20588;-75
2023/01/10 09:20:16;;;;;;;11.13;6.23;;;6.70;99.90;;;;;;4994508;28;20217;-75
2023/01/10 09:22:43;;;;;;;6.60;5.90;;;6.70;99.90;;;;;;4994614;28;20300;-75
2023/01/10 09:25:11;;;;;;;7.80;6.23;;;6.70;99.90;;;;;;4994318;28;20239;-75
2023/01/10 09:27:38;;;;;;;11.13;5.80;;;6.70;99.90;;;;;;4994747;28;20735;-75
2023/01/10 09:30:06;;;;;;;9.20;6.40;;;6.60;99.90;;;;;;4994768;28;20309;-75
2023/01/10 09:32:34;;;;;;;7.80;6.33;;;6.60;99.90;;;;;;4994200;28;20775;-75
2023/01/10 09:35:01;;;;;;;7.23;5.70;;;6.60;99.90;;;;;;4994820;28;20260;-75
2023/01/10 09:37:28;;;;;;;9.10;6.73;;;6.70;99.90;;;;;;4994415;28;20236;-75
2023/01/10 09:39:55;;;;;;;8.60;6.27;;;6.70;99.90;;;;;;4994405;28;20763;-75
2023/01/10 09:42:41;;;;;;;9.77;6.33;;;6.70;99.90;;;;;;4994550;28;20313;-75
2023/01/10 09:45:16;;;;;;;8.93;5.90;;;6.70;99.90;;;;;;4994735;28;20580;-75
2023/01/10 09:47:53;;;;;;;9.00;5.87;;;6.70;99.90;;;;;;4975193;28;20309;-75
2023/01/10 09:50:25;;;;;;;9.70;6.00;;;6.70;99.90;;;;;;4975443;28;20201;-75
2023/01/10 09:52:56;;;;;;;8.70;5.73;;;6.80;99.90;;;;;;4975275;28;20289;-75
2023/01/10 09:55:26;;;;;;;12.40;6.13;;;6.90;99.90;;;;;;4975306;28;20191;-74
2023/01/10 09:57:57;;;;;;;9.03;5.60;;;7.00;99.90;;;;;;4975303;28;20568;-75
2023/01/10 10:00:33;;;;;;;9.93;5.83;;;7.10;99.90;;;;;;4975235;28;20282;-75
2023/01/10 10:03:06;;;;;;;7.57;5.57;;;7.20;99.90;;;;;;4975004;28;20285;-75
2023/01/10 10:05:32;;;;;;;7.70;5.40;;;7.10;99.90;;;;;;4985691;28;20236;-74
2023/01/10 10:08:03;;;;;;;9.70;5.30;;;7.10;99.90;;;;;;4994465;28;20656;-74
2023/01/10 10:10:40;;;;;;;8.73;5.03;;;7.10;99.90;;;;;;4994513;28;20195;-74
2023/01/10 10:13:17;;;;;;;12.47;5.30;;;7.10;99.90;;;;;;4994386;28;20675;-74
2023/01/10 10:15:53;;;;;;;10.43;5.17;;;7.20;99.90;;;;;;4994112;28;20244;-74
2023/01/10 10:18:34;;;;;;;8.93;4.73;;;7.20;99.90;;;;;;4994109;28;20201;-74
2023/01/10 10:21:07;;;;;;;8.83;4.70;;;7.20;99.90;;;;;;4994390;28;20194;-74
2023/01/10 10:23:56;;;;;;;9.23;5.00;;;7.30;99.90;;;;;;4992074;28;20225;-73
2023/01/10 10:26:33;;;;;;;8.97;4.27;;;7.20;99.90;;;;;;4991005;28;20206;-74
2023/01/10 10:29:20;;;;;;;5.87;4.30;;;7.20;99.90;;;;;;4991380;28;20194;-74
2023/01/10 10:32:33;;;;;;;7.60;4.37;;;7.30;99.90;;;;;;4991114;28;20251;-74
2023/01/10 10:35:08;;;;;;;9.87;4.43;;;7.30;99.90;;;;;;4955096;28;20210;-74
2023/01/10 10:37:41;;;;;;;9.67;4.60;;;7.30;99.90;;;;;;4990827;28;20752;-74
2023/01/10 10:40:17;;;;;;;11.50;5.40;;;7.30;99.90;;;;;;4990871;28;20230;-74
2023/01/10 10:42:47;;;;;;;8.07;4.40;;;7.40;99.90;;;;;;4990829;28;20232;-74
2023/01/10 10:45:19;;;;;;;11.07;4.27;;;7.30;99.90;;;;;;4990561;28;20350;-74
2023/01/10 10:47:50;;;;;;;9.57;4.60;;;7.30;99.90;;;;;;4971157;28;20318;-74
2023/01/10 10:50:25;;;;;;;10.33;4.20;;;7.30;99.90;;;;;;4970905;28;20622;-74
2023/01/10 10:52:52;;;;;;;16.60;5.60;;;7.30;99.90;;;;;;4971164;28;20237;-74
2023/01/10 10:55:26;;;;;;;7.03;4.83;;;7.30;99.90;;;;;;4971929;28;20294;-74
2023/01/10 10:57:53;;;;;;;7.97;4.47;;;7.30;99.90;;;;;;4990701;28;20281;-75
2023/01/10 11:00:22;;;;;;;8.67;4.53;;;7.30;99.90;;;;;;4990296;28;20237;-74
2023/01/10 11:02:54;;;;;;;5.17;4.30;;;7.30;99.90;;;;;;4990301;28;20297;-75
2023/01/10 11:05:31;;;;;;;7.73;4.37;;;7.40;99.90;;;;;;4990622;28;20285;-75
2023/01/10 11:08:05;;;;;;;6.27;3.53;;;7.40;99.90;;;;;;4990506;28;20230;-75
2023/01/10 11:10:38;;;;;;;8.70;3.53;;;7.50;99.90;;;;;;4990026;28;20565;-75
2023/01/10 11:13:13;;;;;;;8.73;3.77;;;7.70;99.90;;;;;;4990412;28;20281;-75
2023/01/10 11:15:42;;;;;;;7.60;3.70;;;7.80;99.90;;;;;;4988052;28;20768;-75
2023/01/10 11:18:13;;;;;;;10.67;4.07;;;8.00;99.90;;;;;;4970835;28;20305;-75
2023/01/10 11:20:49;;;;;;;7.13;3.60;;;8.10;99.90;;;;;;4970952;28;20203;-75
2023/01/10 11:23:34;;;;;;;8.63;3.53;;;8.20;99.90;;;;;;4981246;28;20300;-75
2023/01/10 11:26:02;;;;;;;5.60;3.40;;;8.20;99.90;;;;;;4989935;28;20281;-75
2023/01/10 11:28:31;;;;;;;8.00;4.00;;;8.20;99.90;;;;;;4989690;28;20333;-74
2023/01/10 11:30:59;;;;;;;8.03;3.13;;;8.20;99.90;;;;;;4990006;28;20297;-75
2023/01/10 11:33:28;;;;;;;11.93;3.70;;;8.20;99.90;;;;;;4989712;28;20298;-75
2023/01/10 11:36:01;;;;;;;6.37;3.27;;;8.20;99.90;;;;;;4989867;28;20661;-75
2023/01/10 11:38:29;;;;;;;6.90;2.97;;;8.30;99.90;;;;;;4989654;28;20232;-74
2023/01/10 11:40:59;;;;;;;6.13;3.00;;;8.50;99.90;;;;;;4989802;28;20217;-75
2023/01/10 11:43:29;;;;;;;7.10;3.50;;;8.60;99.90;;;;;;4989469;28;20229;-75
2023/01/10 11:46:01;;;;;;;9.20;3.10;;;8.50;99.90;;;;;;4989739;28;20360;-75
2023/01/10 11:48:43;;;;;;;8.57;3.00;;;8.40;99.90;;;;;;4989384;28;20229;-76
2023/01/10 11:51:21;;;;;;;6.57;2.90;;;8.40;99.90;;;;;;4989537;28;20560;-75
2023/01/10 11:53:51;;;;;;;6.50;3.13;;;8.30;99.90;;;;;;4989481;28;20735;-74
2023/01/10 11:56:25;;;;;;;7.50;3.13;;;8.30;99.90;;;;;;4989467;28;20252;-75
2023/01/10 11:58:53;;;;;;;8.83;3.00;;;8.20;99.90;;;;;;4989122;28;20301;-75
2023/01/10 12:01:29;;;;;;;7.47;2.90;;;8.30;99.90;;;;;;4989498;28;20210;-75
2023/01/10 12:03:56;;;;;;;8.27;3.00;;;8.50;99.90;;;;;;4989466;28;20292;-75
2023/01/10 12:06:25;;;;;;;9.20;2.87;;;8.60;99.90;;;;;;4989412;28;20210;-75
2023/01/10 12:08:55;;;;;;;7.27;2.57;;;8.80;99.90;;;;;;4989058;28;20831;-75
2023/01/10 12:11:29;;;;;;;11.23;3.00;;;9.00;99.90;;;;;;4989358;28;20293;-75
2023/01/10 12:13:58;;;;;;;8.37;3.03;;;9.10;99.90;;;;;;4989104;28;20672;-75
2023/01/10 12:16:27;;;;;;;8.17;2.93;;;9.20;99.90;;;;;;4988684;28;20269;-75
2023/01/10 12:18:56;;;;;;;6.33;2.23;;;9.20;99.90;;;;;;4988965;28;20292;-75
2023/01/10 12:21:33;;;;;;;9.27;2.90;;;9.30;99.90;;;;;;4989001;28;20747;-75
2023/01/10 12:24:04;;;;;;;8.23;2.70;;;9.40;99.90;;;;;;4989051;28;20197;-75
2023/01/10 12:26:32;;;;;;;6.93;2.60;;;9.40;99.90;;;;;;4988577;28;20290;-75
2023/01/10 12:29:07;;;;;;;6.70;2.30;;;9.30;99.90;;;;;;4988464;28;20277;-75
2023/01/10 12:31:37;;;;;;;9.03;2.90;;;9.20;99.90;;;;;;4989353;28;20218;-75
2023/01/10 12:34:12;;;;;;;3.67;2.20;;;9.10;99.90;;;;;;4988843;28;20306;-75
2023/01/10 12:36:49;;;;;;;8.10;2.10;;;9.10;99.90;;;;;;4989295;28;20672;-75
2023/01/10 12:39:22;;;;;;;8.23;2.40;;;9.10;99.90;;;;;;4988636;28;20236;-75
2023/01/10 12:45:05;;;;;;;7.50;2.50;;;8.90;99.90;;;;;;4988483;28;20233;-75
2023/01/10 12:47:38;;;;;;;5.33;2.23;;;8.70;99.90;;;;;;4986625;28;20316;-75
2023/01/10 12:50:12;;;;;;;5.87;2.40;;;8.60;99.90;;;;;;4988103;28;20280;-76
2023/01/10 12:52:46;;;;;;;7.43;2.43;;;8.50;99.90;;;;;;4988374;28;20201;-75
2023/01/10 12:55:15;;;;;;;5.87;2.23;;;8.50;99.90;;;;;;4988107;28;20657;-75
2023/01/10 12:57:45;;;;;;;6.53;2.27;;;8.50;99.90;;;;;;4988466;28;20228;-75
2023/01/10 13:00:20;;;;;;;8.47;2.93;;;8.50;99.90;;;;;;4988305;28;20202;-75
2023/01/10 13:02:52;;;;;;;8.23;3.07;;;8.40;99.90;;;;;;4988182;28;20289;-75
2023/01/10 13:05:21;;;;;;;7.63;2.47;;;8.40;99.90;;;;;;4988210;28;20201;-75
2023/01/10 13:07:52;;;;;;;11.40;2.67;;;8.30;99.90;;;;;;4988162;28;20794;-75
2023/01/10 13:10:22;;;;;;;6.00;2.80;;;8.30;99.90;;;;;;4987945;28;20257;-75
2023/01/10 13:12:55;;;;;;;5.63;2.50;;;8.20;99.90;;;;;;4988349;28;20725;-75
2023/01/10 13:15:26;;;;;;;7.97;3.03;;;8.20;99.90;;;;;;4987792;28;20267;-74
2023/01/10 13:17:59;;;;;;;4.63;2.13;;;8.10;99.90;;;;;;4987993;28;20321;-75
2023/01/10 13:20:37;;;;;;;9.10;2.70;;;8.10;99.90;;;;;;4988396;28;20213;-74
2023/01/10 13:23:19;;;;;;;9.20;3.23;;;8.00;99.90;;;;;;4988501;28;20209;-74
2023/01/10 13:25:55;;;;;;;5.70;2.47;;;8.00;99.90;;;;;;4988363;28;20244;-74